createdAt,value
2018-07-20T04:47:02.015Z,1.80
2018-07-20T04:49:48.896Z,1.90
2018-07-20T04:52:36.601Z,1.93
2018-07-20T04:55:25.133Z,1.97
2018-07-20T04:58:13.879Z,1.97
2018-07-20T05:01:01.197Z,2.10
2018-07-20T05:03:49.192Z,2.10
2018-07-20T05:06:36.948Z,1.93
2018-07-20T05:09:25.278Z,2.27
2018-07-20T05:12:13.718Z,2.00
2018-07-20T05:15:02.022Z,2.20
2018-07-20T05:20:42.599Z,2.17
2018-07-20T05:23:31.124Z,2.10
2018-07-20T05:26:19.343Z,2.53
2018-07-20T05:29:07.243Z,2.30
2018-07-20T05:45:45.716Z,2.40
2018-07-20T05:48:39.407Z,2.65
2018-07-20T05:51:26.869Z,2.40
2018-07-20T05:54:15.203Z,2.58
2018-07-20T05:57:03.253Z,2.43
2018-07-20T05:59:51.881Z,3.08
2018-07-20T06:05:30.787Z,2.53
2018-07-20T06:08:42.884Z,2.55
2018-07-20T06:18:14.242Z,2.65
2018-07-20T06:21:02.230Z,2.53
2018-07-20T06:23:50.279Z,2.67
2018-07-20T06:26:38.029Z,2.37
2018-07-20T06:29:25.913Z,2.33
2018-07-20T06:32:14.242Z,2.73
2018-07-20T06:35:02.197Z,2.60
2018-07-20T06:37:49.757Z,2.87
2018-07-20T06:40:37.898Z,2.80
2018-07-20T06:43:25.986Z,2.90
2018-07-20T06:46:15.739Z,2.60
2018-07-20T06:49:05.845Z,3.47
2018-07-20T06:51:53.532Z,3.20
2018-07-20T06:54:41.550Z,2.80
2018-07-20T06:57:29.530Z,2.70
2018-07-20T07:00:17.528Z,2.80
2018-07-20T07:03:06.162Z,2.60
2018-07-20T07:05:53.981Z,2.10
2018-07-20T07:08:41.424Z,2.30
2018-07-20T07:11:29.465Z,2.55
2018-07-20T07:14:17.537Z,2.10
2018-07-20T07:17:05.822Z,2.00
2018-07-20T07:53:10.352Z,2.20
2018-07-20T07:55:59.284Z,2.00
2018-07-20T07:58:47.620Z,1.82
2018-07-20T08:01:37.471Z,2.00
2018-07-20T08:04:27.128Z,2.08
2018-07-20T08:07:17.611Z,2.22
2018-07-20T08:10:07.794Z,1.97
2018-07-20T08:13:08.357Z,2.35
2018-07-20T08:15:52.621Z,2.72
2018-07-20T08:18:29.654Z,2.27
2018-07-20T08:21:07.530Z,1.72
2018-07-20T08:23:45.012Z,2.15
2018-07-20T08:27:48.659Z,2.60
2018-07-20T08:30:27.804Z,2.35
2018-07-20T08:33:05.847Z,2.15
2018-07-20T08:35:43.677Z,2.00
2018-07-20T08:38:21.077Z,2.08
2018-07-20T08:40:58.571Z,2.02
2018-07-20T08:43:36.806Z,2.27
2018-07-20T08:46:14.700Z,1.52
2018-07-20T08:48:51.858Z,1.65
2018-07-20T08:51:29.641Z,1.70
2018-07-20T08:54:08.012Z,2.27
2018-07-20T08:56:44.099Z,1.75
2018-07-20T08:59:22.579Z,1.50
2018-07-20T09:02:03.173Z,1.80
2018-07-20T09:04:39.296Z,2.08
2018-07-20T09:07:15.615Z,1.80
2018-07-20T09:09:51.332Z,1.98
2018-07-20T09:12:27.811Z,1.80
2018-07-20T09:15:03.922Z,1.90
2018-07-20T09:17:39.888Z,2.30
2018-07-20T09:20:15.493Z,2.67
2018-07-20T09:22:52.015Z,3.20
2018-07-20T09:25:28.342Z,3.67
2018-07-20T09:28:04.127Z,3.47
2018-07-20T09:30:41.227Z,3.20
2018-07-20T09:33:17.029Z,2.70
2018-07-20T09:35:54.219Z,2.92
2018-07-20T09:38:30.380Z,2.52
2018-07-20T09:41:06.773Z,2.42
2018-07-20T09:50:55.084Z,2.23
2018-07-20T09:53:59.507Z,2.17
2018-07-20T09:56:50.449Z,1.93
2018-07-20T09:59:26.871Z,2.10
2018-07-20T10:02:03.071Z,1.67
2018-07-20T10:04:39.225Z,2.00
2018-07-20T10:07:16.420Z,2.00
2018-07-20T10:09:52.340Z,2.37
2018-07-20T10:12:28.173Z,1.67
2018-07-20T10:15:05.245Z,2.20
2018-07-20T10:17:49.253Z,2.10
2018-07-20T10:20:32.421Z,2.00
2018-07-20T10:23:15.694Z,2.50
2018-07-20T10:26:00.069Z,2.27
2018-07-20T10:28:43.861Z,3.30
2018-07-20T10:31:28.570Z,2.08
2018-07-20T10:34:12.629Z,1.22
2018-07-20T10:36:55.691Z,1.07
2018-07-20T10:39:40.506Z,1.02
2018-07-20T10:42:25.164Z,1.10
2018-07-20T10:45:08.874Z,0.93
2018-07-20T10:47:51.736Z,0.98
2018-07-20T10:50:36.828Z,1.02
2018-07-20T10:53:20.003Z,0.98
2018-07-20T10:56:02.690Z,0.95
2018-07-20T10:58:45.965Z,0.98
2018-07-20T11:01:30.059Z,1.07
2018-07-20T11:04:13.396Z,1.32
2018-07-20T11:06:56.245Z,1.00
2018-07-20T11:09:41.213Z,1.15
2018-07-20T11:12:27.883Z,1.15
2018-07-20T11:15:11.207Z,1.20
2018-07-20T11:17:55.034Z,1.20
2018-07-20T11:20:43.909Z,1.15
2018-07-20T11:23:27.107Z,1.05
2018-07-20T11:26:10.628Z,1.20
2018-07-20T11:28:54.066Z,1.40
2018-07-20T11:31:39.972Z,1.47
2018-07-20T11:34:23.468Z,1.27
2018-07-20T11:37:08.364Z,1.30
2018-07-20T11:39:53.453Z,1.20
2018-07-20T11:42:39.359Z,1.22
2018-07-20T11:45:16.475Z,1.00
2018-07-20T11:47:53.535Z,1.00
2018-07-20T11:50:31.207Z,1.10
2018-07-20T11:53:08.057Z,1.33
2018-07-20T11:55:45.476Z,1.27
2018-07-20T11:58:22.976Z,1.17
2018-07-20T12:01:00.726Z,1.10
2018-07-20T12:03:37.126Z,1.30
2018-07-20T12:06:14.243Z,1.30
2018-07-20T12:08:51.498Z,1.30
2018-07-20T12:11:27.580Z,0.73
2018-07-20T12:14:04.291Z,1.20
2018-07-20T12:16:42.001Z,0.97
2018-07-20T12:19:18.245Z,0.90
2018-07-20T12:21:54.672Z,0.85
2018-07-20T12:24:31.008Z,1.27
2018-07-20T12:27:07.400Z,1.37
2018-07-20T12:29:44.752Z,1.60
2018-07-20T12:32:20.796Z,1.70
2018-07-20T12:35:01.351Z,1.30
2018-07-20T12:37:44.135Z,1.70
2018-07-20T12:40:26.557Z,1.13
2018-07-20T12:43:12.646Z,1.57
2018-07-20T12:45:53.558Z,1.00
2018-07-20T12:48:33.610Z,1.10
2018-07-20T12:51:16.523Z,1.00
2018-07-20T12:53:53.591Z,1.20
2018-07-20T12:56:34.527Z,1.20
2018-07-20T12:59:18.064Z,1.20
2018-07-20T13:02:02.444Z,1.60
2018-07-20T13:04:47.781Z,1.77
2018-07-20T13:07:36.896Z,1.67
2018-07-20T13:10:19.896Z,1.50
2018-07-20T13:13:02.997Z,1.40
2018-07-20T13:15:46.858Z,1.50
2018-07-20T13:18:30.321Z,1.40
2018-07-20T13:21:13.997Z,1.87
2018-07-20T13:23:57.774Z,1.70
2018-07-20T13:26:45.724Z,1.60
2018-07-20T13:29:31.025Z,1.73
2018-07-20T13:32:15.561Z,1.60
2018-07-20T13:35:00.773Z,1.70
2018-07-20T13:37:43.579Z,1.67
2018-07-20T13:40:28.897Z,1.80
2018-07-20T13:43:13.209Z,1.60
2018-07-20T13:45:58.088Z,1.97
2018-07-20T13:48:42.713Z,1.70
2018-07-20T13:51:26.191Z,2.20
2018-07-20T13:54:09.355Z,2.17
2018-07-20T13:56:56.442Z,2.10
2018-07-20T13:59:42.149Z,1.80
2018-07-20T14:02:25.865Z,1.83
2018-07-20T14:05:10.068Z,2.10
2018-07-20T14:07:56.319Z,2.10
2018-07-20T14:10:40.200Z,2.00
2018-07-20T14:13:24.332Z,2.50
2018-07-20T14:16:09.447Z,2.30
2018-07-20T14:18:52.392Z,2.70
2018-07-20T14:21:37.080Z,2.63
2018-07-20T14:24:21.500Z,2.60
2018-07-20T14:27:05.179Z,2.60
2018-07-20T14:29:48.824Z,2.50
2018-07-20T14:32:33.544Z,2.70
2018-07-20T14:35:17.960Z,2.70
2018-07-20T14:38:02.485Z,2.67
2018-07-20T14:40:47.607Z,2.67
2018-07-20T14:43:31.833Z,2.57
2018-07-20T14:46:15.679Z,3.07
2018-07-20T14:48:59.783Z,2.77
2018-07-20T14:51:42.826Z,3.30
2018-07-20T14:54:26.355Z,2.90
2018-07-20T14:57:10.045Z,2.90
2018-07-20T14:59:53.550Z,2.83
2018-07-20T15:02:38.529Z,2.70
2018-07-20T15:05:21.530Z,2.70
2018-07-20T15:08:04.971Z,2.23
2018-07-20T15:10:48.346Z,2.00
2018-07-20T15:13:32.108Z,2.07
2018-07-20T15:16:16.363Z,1.70
2018-07-20T15:19:00.589Z,1.80
2018-07-20T15:21:45.827Z,1.70
2018-07-20T15:24:29.438Z,1.60
2018-07-20T15:27:15.739Z,1.80
2018-07-20T15:30:00.261Z,1.43
2018-07-20T15:32:46.313Z,1.57
2018-07-20T15:35:33.002Z,1.60
2018-07-20T15:38:18.745Z,1.70
2018-07-20T15:41:04.227Z,1.80
2018-07-20T15:43:48.601Z,1.90
2018-07-20T15:46:31.354Z,1.30
2018-07-20T15:49:16.449Z,1.60
2018-07-20T15:54:46.194Z,2.00
2018-07-20T15:57:29.807Z,1.70
2018-07-20T16:00:13.866Z,1.67
2018-07-20T16:02:58.258Z,2.13
2018-07-20T16:05:42.655Z,1.80
2018-07-20T16:08:27.471Z,1.80
2018-07-20T16:11:11.062Z,1.60
2018-07-20T16:13:55.464Z,1.40
2018-07-20T16:16:38.181Z,1.67
2018-07-20T16:19:21.503Z,1.77
2018-07-20T16:22:04.212Z,1.73
2018-07-20T16:24:48.223Z,1.87
2018-07-20T16:27:31.725Z,2.17
2018-07-20T16:30:16.252Z,2.80
2018-07-20T16:32:59.126Z,3.53
2018-07-20T16:35:41.293Z,3.33
2018-07-20T16:38:25.144Z,2.50
2018-07-20T16:41:09.689Z,3.00
2018-07-20T16:43:53.269Z,2.27
2018-07-20T16:46:35.820Z,2.90
2018-07-20T16:49:18.332Z,2.50
2018-07-20T16:52:01.261Z,2.23
2018-07-20T16:54:44.788Z,2.03
2018-07-20T16:57:28.257Z,2.00
2018-07-20T17:00:13.264Z,1.83
2018-07-20T17:02:57.481Z,2.30
2018-07-20T17:05:40.105Z,1.70
2018-07-20T17:08:23.183Z,1.50
2018-07-20T17:11:07.355Z,1.40
2018-07-20T17:13:51.414Z,1.70
2018-07-20T17:16:34.992Z,1.30
2018-07-20T17:19:18.298Z,1.40
2018-07-20T17:22:01.013Z,1.50
2018-07-20T17:24:45.981Z,1.27
2018-07-20T17:27:30.218Z,1.30
2018-07-20T17:30:14.017Z,1.40
2018-07-20T17:32:57.533Z,1.30
2018-07-20T17:35:40.930Z,1.10
2018-07-20T17:38:25.365Z,1.23
2018-07-20T17:41:06.664Z,2.20
2018-07-20T17:43:42.910Z,1.27
2018-07-20T17:46:19.242Z,1.40
2018-07-20T17:48:56.345Z,1.10
2018-07-20T17:51:32.045Z,1.33
2018-07-20T17:54:08.261Z,1.23
2018-07-20T17:56:45.639Z,1.43
2018-07-20T17:59:22.322Z,1.30
2018-07-20T18:01:59.843Z,1.67
2018-07-20T18:04:36.595Z,1.33
2018-07-20T18:07:13.287Z,1.30
2018-07-20T18:09:49.671Z,1.30
2018-07-20T18:12:25.722Z,1.27
2018-07-20T18:15:02.912Z,1.23
2018-07-20T18:17:39.898Z,1.60
2018-07-20T18:20:18.155Z,1.27
2018-07-20T18:22:55.405Z,1.10
2018-07-20T18:25:32.063Z,1.30
2018-07-20T18:28:09.164Z,1.57
2018-07-20T18:30:46.487Z,1.50
2018-07-20T18:33:23.600Z,1.20
2018-07-20T18:36:00.241Z,1.37
2018-07-20T18:38:37.184Z,1.87
2018-07-20T18:41:14.242Z,1.90
2018-07-20T18:43:51.922Z,1.73
2018-07-20T18:46:28.808Z,1.47
2018-07-20T18:49:05.859Z,1.40
2018-07-20T18:51:43.022Z,2.00
2018-07-20T18:54:20.631Z,1.73
2018-07-20T18:56:58.330Z,1.70
2018-07-20T18:59:35.890Z,1.60
2018-07-20T19:02:13.698Z,1.60
2018-07-20T19:04:51.291Z,1.70
2018-07-20T19:07:28.461Z,1.50
2018-07-20T19:10:05.165Z,1.60
2018-07-20T19:12:41.899Z,1.33
2018-07-20T19:15:18.694Z,1.40
2018-07-20T19:17:55.619Z,1.63
2018-07-20T19:20:32.273Z,1.70
2018-07-20T19:23:09.209Z,1.80
2018-07-20T19:25:46.343Z,2.10
2018-07-20T19:28:23.506Z,2.40
2018-07-20T19:31:01.043Z,2.20
2018-07-20T19:33:38.639Z,2.73
2018-07-20T19:36:15.456Z,2.80
2018-07-20T19:38:52.006Z,2.73
2018-07-20T19:41:28.582Z,3.03
2018-07-20T19:44:05.941Z,2.80
2018-07-20T19:46:41.841Z,2.83
2018-07-20T19:49:18.638Z,3.00
2018-07-20T19:51:55.402Z,3.50
2018-07-20T19:54:32.195Z,3.13
2018-07-20T19:57:09.275Z,3.10
2018-07-20T19:59:45.363Z,3.27
2018-07-20T20:02:21.443Z,3.23
2018-07-20T20:04:57.263Z,3.20
2018-07-20T20:07:33.688Z,3.50
2018-07-20T20:10:10.102Z,3.20
2018-07-20T20:12:46.481Z,2.60
2018-07-20T20:15:22.894Z,2.97
2018-07-20T20:18:00.227Z,3.03
2018-07-20T20:20:36.973Z,3.70
2018-07-20T20:23:14.196Z,3.43
2018-07-20T20:25:50.720Z,3.53
2018-07-20T20:28:27.527Z,3.87
2018-07-20T20:31:05.272Z,3.20
2018-07-20T20:33:42.377Z,3.60
2018-07-20T20:36:19.568Z,3.40
2018-07-20T20:38:56.648Z,3.10
2018-07-20T20:41:33.135Z,3.30
2018-07-20T20:44:09.892Z,3.13
2018-07-20T20:46:47.036Z,3.03
2018-07-20T20:49:24.472Z,3.20
2018-07-20T20:52:01.916Z,2.90
2018-07-20T20:54:39.796Z,3.27
2018-07-20T20:57:17.068Z,2.90
2018-07-20T20:59:53.686Z,3.50
2018-07-20T21:02:31.471Z,2.90
2018-07-20T21:05:09.527Z,3.67
2018-07-20T21:07:46.325Z,3.50
2018-07-20T21:10:24.097Z,3.10
2018-07-20T21:13:01.345Z,3.20
2018-07-20T21:15:38.768Z,3.33
2018-07-20T21:18:15.249Z,3.20
2018-07-20T21:20:52.041Z,3.10
2018-07-20T21:23:28.681Z,2.77
2018-07-20T21:26:06.589Z,3.17
2018-07-20T21:28:44.486Z,3.53
2018-07-20T21:31:23.043Z,3.57
2018-07-20T21:34:00.565Z,2.67
2018-07-20T21:36:38.494Z,3.30
2018-07-20T21:39:16.900Z,3.10
2018-07-20T21:41:53.633Z,3.13
2018-07-20T21:44:30.655Z,3.10
2018-07-20T21:47:08.014Z,3.37
2018-07-20T21:49:45.490Z,3.20
2018-07-20T21:52:23.024Z,2.60
2018-07-20T21:54:59.583Z,2.50
2018-07-20T21:57:36.688Z,2.60
2018-07-20T22:00:18.573Z,2.40
2018-07-20T22:02:56.483Z,2.63
2018-07-20T22:05:34.330Z,2.90
2018-07-20T22:08:11.995Z,2.90
2018-07-20T22:10:48.729Z,2.60
2018-07-20T22:13:25.503Z,2.57
2018-07-20T22:16:03.390Z,2.50
2018-07-20T22:18:40.406Z,2.63
2018-07-20T22:21:18.188Z,2.90
2018-07-20T22:23:55.259Z,3.00
2018-07-20T22:26:32.489Z,2.30
2018-07-20T22:29:09.907Z,2.27
2018-07-20T22:31:47.381Z,2.20
2018-07-20T22:34:24.191Z,2.20
2018-07-20T22:37:01.838Z,2.30
2018-07-20T22:39:38.617Z,2.10
2018-07-20T22:42:16.248Z,2.40
2018-07-20T22:44:53.620Z,2.27
2018-07-20T22:47:30.699Z,2.33
2018-07-20T22:50:07.090Z,2.40
2018-07-20T22:52:45.306Z,2.20
2018-07-20T22:55:22.233Z,2.20
2018-07-20T22:57:59.040Z,2.00
2018-07-20T23:00:36.492Z,2.07
2018-07-20T23:03:13.919Z,2.20
2018-07-20T23:05:50.529Z,2.03
2018-07-20T23:08:27.575Z,2.20
2018-07-20T23:11:05.199Z,2.17
2018-07-20T23:13:43.299Z,2.47
2018-07-20T23:16:20.714Z,2.30
2018-07-20T23:18:57.437Z,1.87
2018-07-20T23:21:34.686Z,2.10
2018-07-20T23:24:11.451Z,2.17
2018-07-20T23:26:48.743Z,2.10
2018-07-20T23:29:25.737Z,2.17
2018-07-20T23:32:02.248Z,2.17
2018-07-20T23:34:39.632Z,2.00
2018-07-20T23:37:16.989Z,2.03
2018-07-20T23:39:53.490Z,2.13
2018-07-20T23:42:30.907Z,2.20
2018-07-20T23:45:08.366Z,2.20
2018-07-20T23:47:45.055Z,2.90
2018-07-20T23:50:22.228Z,2.80
2018-07-20T23:52:59.512Z,2.70
2018-07-20T23:55:36.748Z,2.50
2018-07-20T23:58:13.683Z,2.30
